createdAt,value
2023-02-24T00:02:01.956Z,47.80
2023-02-24T00:04:32.270Z,53.58
2023-02-24T00:07:00.220Z,47.38
2023-02-24T00:09:30.010Z,40.88
2023-02-24T00:12:08.868Z,38.88
2023-02-24T00:14:38.448Z,29.23
2023-02-24T00:17:09.483Z,26.70
2023-02-24T00:19:38.260Z,24.95
2023-02-24T00:22:08.364Z,22.00
2023-02-24T00:24:36.440Z,16.67
2023-02-24T00:27:07.793Z,17.02
2023-02-24T00:29:40.171Z,14.88
2023-02-24T00:32:12.411Z,18.00
2023-02-24T00:34:40.670Z,18.27
2023-02-24T00:37:08.119Z,15.82
2023-02-24T00:39:36.300Z,12.65
2023-02-24T00:42:06.064Z,13.73
2023-02-24T00:44:47.265Z,10.23
2023-02-24T00:47:16.807Z,16.13
2023-02-24T00:49:44.405Z,15.23
2023-02-24T00:52:14.805Z,12.30
2023-02-24T00:54:43.546Z,18.92
2023-02-24T00:57:12.036Z,13.13
2023-02-24T00:59:39.719Z,19.90
2023-02-24T01:02:07.672Z,14.95
2023-02-24T01:04:37.453Z,16.38
2023-02-24T01:07:10.726Z,15.63
2023-02-24T01:09:39.957Z,15.98
2023-02-24T01:12:38.478Z,17.85
2023-02-24T01:15:08.956Z,18.60
2023-02-24T01:17:37.613Z,14.77
2023-02-24T01:20:16.934Z,16.73
2023-02-24T01:22:50.336Z,13.73
2023-02-24T01:25:20.483Z,16.77
2023-02-24T01:27:48.238Z,13.80
2023-02-24T01:30:16.542Z,19.50
2023-02-24T01:32:44.706Z,15.32
2023-02-24T01:35:12.186Z,14.50
2023-02-24T01:37:39.871Z,15.98
2023-02-24T01:40:18.507Z,17.95
2023-02-24T01:42:47.685Z,20.88
2023-02-24T01:45:18.842Z,18.75
2023-02-24T01:47:47.308Z,14.57
2023-02-24T01:50:16.130Z,21.48
2023-02-24T01:52:46.162Z,24.80
2023-02-24T01:55:25.514Z,20.80
2023-02-24T01:57:54.248Z,16.60
2023-02-24T02:00:51.138Z,18.30
2023-02-24T02:03:18.570Z,17.77
2023-02-24T02:05:48.631Z,21.55
2023-02-24T02:08:18.135Z,20.83
2023-02-24T02:10:46.763Z,20.13
2023-02-24T02:13:21.075Z,23.25
2023-02-24T02:16:21.728Z,21.23
2023-02-24T02:19:14.508Z,22.20
2023-02-24T02:21:59.601Z,14.20
2023-02-24T02:24:33.836Z,23.05
2023-02-24T02:27:12.872Z,27.35
2023-02-24T02:29:58.750Z,23.00
2023-02-24T02:32:41.357Z,21.92
2023-02-24T02:35:28.258Z,25.25
2023-02-24T02:38:03.166Z,21.85
2023-02-24T02:40:41.279Z,20.70
2023-02-24T02:43:25.774Z,21.48
2023-02-24T02:45:59.410Z,26.33
2023-02-24T02:48:47.705Z,26.17
2023-02-24T02:51:21.369Z,21.65
2023-02-24T02:54:02.255Z,35.83
2023-02-24T02:56:48.152Z,31.45
2023-02-24T02:59:22.564Z,28.80
2023-02-24T03:01:55.660Z,28.23
2023-02-24T03:04:26.563Z,22.20
2023-02-24T03:07:00.368Z,22.17
2023-02-24T03:09:36.271Z,33.80
2023-02-24T03:12:08.463Z,24.88
2023-02-24T03:14:39.469Z,34.30
2023-02-24T03:17:15.145Z,27.00
2023-02-24T03:19:44.365Z,33.97
2023-02-24T03:22:24.755Z,38.20
2023-02-24T03:24:52.610Z,31.73
2023-02-24T03:27:33.762Z,28.58
2023-02-24T03:30:07.444Z,30.92
2023-02-24T03:32:51.345Z,24.33
2023-02-24T03:35:29.625Z,29.73
2023-02-24T03:37:59.363Z,25.58
2023-02-24T03:40:34.981Z,28.10
2023-02-24T03:43:10.024Z,30.00
2023-02-24T03:45:40.077Z,31.55
2023-02-24T03:48:09.254Z,33.83
2023-02-24T03:50:38.761Z,33.20
2023-02-24T03:53:46.749Z,34.17
2023-02-24T03:56:22.320Z,24.90
2023-02-24T03:58:53.453Z,27.38
2023-02-24T04:01:37.797Z,31.10
2023-02-24T04:04:37.878Z,29.33
2023-02-24T04:07:41.620Z,21.80
2023-02-24T04:10:17.965Z,26.47
2023-02-24T04:13:19.261Z,25.35
2023-02-24T04:15:58.433Z,27.67
2023-02-24T04:18:30.893Z,19.25
2023-02-24T04:21:02.758Z,18.73
2023-02-24T04:23:33.969Z,20.52
2023-02-24T04:26:02.382Z,30.02
2023-02-24T04:28:31.085Z,15.88
2023-02-24T04:31:06.174Z,22.20
2023-02-24T04:33:35.836Z,29.90
2023-02-24T04:36:03.527Z,35.15
2023-02-24T04:38:36.316Z,29.37
2023-02-24T04:41:04.294Z,22.77
2023-02-24T04:43:31.729Z,29.07
2023-02-24T04:46:00.383Z,15.23
2023-02-24T04:48:30.158Z,17.27
2023-02-24T04:51:03.639Z,27.73
2023-02-24T04:53:30.974Z,18.50
2023-02-24T04:56:08.135Z,18.27
2023-02-24T04:58:40.066Z,22.63
2023-02-24T05:01:12.582Z,22.55
2023-02-24T05:03:42.905Z,20.33
2023-02-24T05:06:17.908Z,16.50
2023-02-24T05:08:45.156Z,11.93
2023-02-24T05:11:15.932Z,20.33
2023-02-24T05:13:46.804Z,13.32
2023-02-24T05:16:17.976Z,18.05
2023-02-24T05:18:45.568Z,12.73
2023-02-24T05:21:33.939Z,10.30
2023-02-24T05:24:06.795Z,20.70
2023-02-24T05:26:37.060Z,14.07
2023-02-24T05:29:06.625Z,15.40
2023-02-24T05:31:34.594Z,22.30
2023-02-24T05:34:04.668Z,17.33
2023-02-24T05:36:35.241Z,15.37
2023-02-24T05:39:07.437Z,13.70
2023-02-24T05:41:38.557Z,19.53
2023-02-24T05:44:10.847Z,23.83
2023-02-24T05:46:41.485Z,13.67
2023-02-24T05:49:35.499Z,9.63
2023-02-24T05:52:09.784Z,12.23
2023-02-24T05:54:40.479Z,20.53
2023-02-24T05:57:13.739Z,11.20
2023-02-24T05:59:42.003Z,13.43
2023-02-24T06:02:12.941Z,19.57
2023-02-24T06:04:53.902Z,13.13
2023-02-24T06:07:27.343Z,11.07
2023-02-24T06:09:57.310Z,10.37
2023-02-24T06:12:30.178Z,19.77
2023-02-24T06:15:00.782Z,15.70
2023-02-24T06:17:29.176Z,13.67
2023-02-24T06:19:56.653Z,20.40
2023-02-24T06:22:26.085Z,12.53
2023-02-24T06:24:54.824Z,17.47
2023-02-24T06:27:25.248Z,11.30
2023-02-24T06:29:54.472Z,15.27
2023-02-24T06:32:24.867Z,19.73
2023-02-24T06:34:53.717Z,19.77
2023-02-24T06:37:22.711Z,11.17
2023-02-24T06:39:50.096Z,12.03
2023-02-24T06:42:21.053Z,11.83
2023-02-24T06:44:48.924Z,13.90
2023-02-24T06:47:17.855Z,16.23
2023-02-24T06:49:45.405Z,7.33
2023-02-24T06:52:18.421Z,13.23
2023-02-24T06:54:48.493Z,10.80
2023-02-24T06:57:15.839Z,19.23
2023-02-24T06:59:43.192Z,14.93
2023-02-24T07:02:10.840Z,9.13
2023-02-24T07:04:43.881Z,11.80
2023-02-24T07:07:14.162Z,15.63
2023-02-24T07:09:42.730Z,10.00
2023-02-24T07:12:11.163Z,17.77
2023-02-24T07:14:40.391Z,17.27
2023-02-24T07:17:08.397Z,12.17
2023-02-24T07:19:36.831Z,8.70
2023-02-24T07:22:04.673Z,9.83
2023-02-24T07:24:37.274Z,14.13
2023-02-24T07:27:08.276Z,11.57
2023-02-24T07:29:37.936Z,12.97
2023-02-24T07:32:09.305Z,14.87
2023-02-24T07:34:40.228Z,12.00
2023-02-24T07:37:09.376Z,11.03
2023-02-24T07:39:39.216Z,15.33
2023-02-24T07:42:08.938Z,11.80
2023-02-24T07:44:46.244Z,10.37
2023-02-24T07:47:15.637Z,12.53
2023-02-24T07:49:43.084Z,10.73
2023-02-24T07:52:11.595Z,14.50
2023-02-24T07:54:39.218Z,16.90
2023-02-24T07:57:13.563Z,11.27
2023-02-24T07:59:46.823Z,13.37
2023-02-24T08:02:14.641Z,15.47
2023-02-24T08:04:48.187Z,18.70
2023-02-24T08:07:16.521Z,14.63
2023-02-24T08:09:46.610Z,15.67
2023-02-24T08:12:18.044Z,15.73
2023-02-24T08:14:51.037Z,10.37
2023-02-24T08:17:24.098Z,11.20
2023-02-24T08:20:11.811Z,12.33
2023-02-24T08:22:43.936Z,14.47
2023-02-24T08:25:18.238Z,18.80
2023-02-24T08:28:06.932Z,14.93
2023-02-24T08:30:40.789Z,11.70
2023-02-24T08:33:10.420Z,9.07
2023-02-24T08:35:44.702Z,10.57
2023-02-24T08:38:14.510Z,10.00
2023-02-24T08:40:51.746Z,13.67
2023-02-24T08:43:33.261Z,12.90
2023-02-24T08:46:21.539Z,21.40
2023-02-24T08:48:57.110Z,14.27
2023-02-24T08:51:28.792Z,19.57
2023-02-24T08:54:01.954Z,13.47
2023-02-24T08:56:34.448Z,13.30
2023-02-24T08:59:07.807Z,11.93
2023-02-24T09:01:38.294Z,14.13
2023-02-24T09:04:09.819Z,12.68
2023-02-24T09:07:10.640Z,9.03
2023-02-24T09:09:42.178Z,11.83
2023-02-24T09:12:21.777Z,21.70
2023-02-24T09:14:55.402Z,11.53
2023-02-24T09:17:46.105Z,15.60
2023-02-24T09:20:27.451Z,9.27
2023-02-24T09:23:09.567Z,9.90
2023-02-24T09:25:44.521Z,10.73
2023-02-24T09:28:24.781Z,9.97
2023-02-24T09:31:00.343Z,5.30
2023-02-24T09:33:38.720Z,9.57
2023-02-24T09:36:13.030Z,12.33
2023-02-24T09:39:01.800Z,11.57
2023-02-24T09:41:53.492Z,12.50
2023-02-24T09:44:27.558Z,10.63
2023-02-24T09:46:59.881Z,9.82
2023-02-24T09:49:46.445Z,10.85
2023-02-24T09:52:17.623Z,14.10
2023-02-24T09:55:08.730Z,10.47
2023-02-24T09:58:06.422Z,5.30
2023-02-24T10:00:43.948Z,14.73
2023-02-24T10:03:42.201Z,9.82
2023-02-24T10:06:24.258Z,9.00
2023-02-24T10:09:11.508Z,9.23
2023-02-24T10:11:54.295Z,6.70
2023-02-24T10:14:42.645Z,13.98
2023-02-24T10:17:23.167Z,9.50
2023-02-24T10:20:00.540Z,5.95
2023-02-24T10:22:53.005Z,11.25
2023-02-24T10:25:54.146Z,7.82
2023-02-24T10:28:46.059Z,6.50
2023-02-24T10:31:26.856Z,8.95
2023-02-24T10:34:01.471Z,6.32
2023-02-24T10:36:35.484Z,9.52
2023-02-24T10:39:25.405Z,11.10
2023-02-24T10:42:17.652Z,11.98
2023-02-24T10:45:01.991Z,10.23
2023-02-24T10:47:31.475Z,9.30
2023-02-24T10:50:01.445Z,12.23
2023-02-24T10:53:10.899Z,12.10
2023-02-24T10:55:47.220Z,10.77
2023-02-24T10:58:56.341Z,9.48
2023-02-24T11:01:59.581Z,5.88
2023-02-24T11:04:55.887Z,16.55
2023-02-24T11:07:33.517Z,8.25
2023-02-24T11:10:11.121Z,14.73
2023-02-24T11:13:10.020Z,12.93
2023-02-24T11:16:10.264Z,12.93
2023-02-24T11:18:39.900Z,9.07
2023-02-24T11:21:10.866Z,9.05
2023-02-24T11:23:40.564Z,14.30
2023-02-24T11:26:19.261Z,14.55
2023-02-24T11:29:04.249Z,10.07
2023-02-24T11:31:34.683Z,9.35
2023-02-24T11:34:05.256Z,11.70
2023-02-24T11:36:57.609Z,10.43
2023-02-24T11:39:39.328Z,7.53
2023-02-24T11:42:13.269Z,7.00
2023-02-24T11:45:02.583Z,10.75
2023-02-24T11:47:36.690Z,12.98
2023-02-24T11:50:32.525Z,9.53
2023-02-24T11:53:05.621Z,12.98
2023-02-24T11:55:42.426Z,16.33
2023-02-24T11:58:27.234Z,13.40
2023-02-24T12:01:01.520Z,9.45
2023-02-24T12:04:12.161Z,16.00
2023-02-24T12:07:04.676Z,11.97
2023-02-24T12:09:41.211Z,12.05
2023-02-24T12:12:17.623Z,8.02
2023-02-24T12:14:53.411Z,9.17
2023-02-24T12:17:41.805Z,9.43
2023-02-24T12:20:32.886Z,15.20
2023-02-24T12:23:10.564Z,10.07
2023-02-24T12:26:13.467Z,10.50
2023-02-24T12:28:44.138Z,13.87
2023-02-24T12:31:30.228Z,15.17
2023-02-24T12:34:36.690Z,10.50
2023-02-24T12:37:41.724Z,13.63
2023-02-24T12:40:34.493Z,9.87
2023-02-24T12:43:25.254Z,10.23
2023-02-24T12:46:01.097Z,10.57
2023-02-24T12:48:40.868Z,8.63
2023-02-24T12:51:17.213Z,11.37
2023-02-24T12:53:51.458Z,12.02
2023-02-24T12:56:24.215Z,5.45
2023-02-24T12:58:56.513Z,13.32
2023-02-24T13:01:43.322Z,12.45
2023-02-24T13:04:25.674Z,9.90
2023-02-24T13:07:09.877Z,13.33
2023-02-24T13:09:37.116Z,15.23
2023-02-24T13:12:17.221Z,10.57
2023-02-24T13:14:45.459Z,9.37
2023-02-24T13:17:12.857Z,12.37
2023-02-24T13:19:41.593Z,11.40
2023-02-24T13:22:20.379Z,10.30
2023-02-24T13:25:12.379Z,18.27
2023-02-24T13:27:42.702Z,14.53
2023-02-24T13:30:17.661Z,12.55
2023-02-24T13:33:00.739Z,15.20
2023-02-24T13:35:27.966Z,11.23
2023-02-24T13:37:55.330Z,11.67
2023-02-24T13:40:27.153Z,7.40
2023-02-24T13:42:57.876Z,8.30
2023-02-24T13:45:30.692Z,11.52
2023-02-24T13:48:12.531Z,9.27
2023-02-24T13:51:02.272Z,7.25
2023-02-24T13:53:44.514Z,14.15
2023-02-24T13:56:45.022Z,7.67
2023-02-24T13:59:50.981Z,10.45
2023-02-24T14:02:26.867Z,12.67
2023-02-24T14:04:57.624Z,9.80
2023-02-24T14:07:29.306Z,7.93
2023-02-24T14:10:27.468Z,10.23
2023-02-24T14:13:06.489Z,7.37
2023-02-24T14:15:34.865Z,7.47
2023-02-24T14:18:05.457Z,9.70
2023-02-24T14:20:40.438Z,13.80
2023-02-24T14:23:28.743Z,16.37
2023-02-24T14:26:02.289Z,9.40
2023-02-24T14:28:33.335Z,7.67
2023-02-24T14:31:13.815Z,12.53
2023-02-24T14:33:44.048Z,9.90
2023-02-24T14:36:21.084Z,9.43
2023-02-24T14:39:14.925Z,13.17
2023-02-24T14:41:42.623Z,12.07
2023-02-24T14:44:26.452Z,7.47
2023-02-24T14:46:55.261Z,9.00
2023-02-24T14:49:31.083Z,12.10
2023-02-24T14:52:10.427Z,12.27
2023-02-24T14:54:53.206Z,8.90
2023-02-24T14:57:28.842Z,12.43
2023-02-24T15:00:00.889Z,9.10
2023-02-24T15:02:33.369Z,11.70
2023-02-24T15:05:00.673Z,7.60
2023-02-24T15:07:33.665Z,8.63
2023-02-24T15:10:01.891Z,11.33
2023-02-24T15:12:36.029Z,16.80
2023-02-24T15:15:07.912Z,11.47
2023-02-24T15:17:40.606Z,7.53
2023-02-24T15:20:28.582Z,8.20
2023-02-24T15:22:56.042Z,8.97
2023-02-24T15:25:37.135Z,8.73
2023-02-24T15:28:26.282Z,12.55
2023-02-24T15:30:59.122Z,11.53
2023-02-24T15:33:32.321Z,10.47
2023-02-24T15:36:00.339Z,10.10
2023-02-24T15:38:33.965Z,7.87
2023-02-24T15:41:05.417Z,8.47
2023-02-24T15:43:37.251Z,10.95
2023-02-24T15:46:29.403Z,10.07
2023-02-24T15:49:01.631Z,13.57
2023-02-24T15:51:39.794Z,9.33
2023-02-24T15:54:12.880Z,11.43
2023-02-24T15:56:41.459Z,14.00
2023-02-24T15:59:21.237Z,11.10
2023-02-24T16:01:49.158Z,10.43
2023-02-24T16:04:16.610Z,13.23
2023-02-24T16:06:54.061Z,9.10
2023-02-24T16:09:36.643Z,13.27
2023-02-24T16:12:23.977Z,15.63
2023-02-24T16:14:55.876Z,11.63
2023-02-24T16:17:30.988Z,11.93
2023-02-24T16:19:59.383Z,12.17
2023-02-24T16:22:27.515Z,9.67
2023-02-24T16:24:54.988Z,10.13
2023-02-24T16:27:23.864Z,8.83
2023-02-24T16:29:51.475Z,9.27
2023-02-24T16:32:22.155Z,10.60
2023-02-24T16:34:50.106Z,12.60
2023-02-24T16:37:35.564Z,10.80
2023-02-24T16:40:10.570Z,12.27
2023-02-24T16:42:37.927Z,8.80
2023-02-24T16:45:05.754Z,11.33
2023-02-24T16:47:34.301Z,12.37
2023-02-24T16:50:02.074Z,10.00
2023-02-24T16:52:29.425Z,11.70
2023-02-24T16:54:56.871Z,9.90
2023-02-24T16:57:25.730Z,9.63
2023-02-24T16:59:53.343Z,7.88
2023-02-24T17:02:24.988Z,13.20
2023-02-24T17:04:52.512Z,12.33
2023-02-24T17:07:21.297Z,16.70
2023-02-24T17:09:48.621Z,10.17
2023-02-24T17:12:21.699Z,10.20
2023-02-24T17:14:49.393Z,7.87
2023-02-24T17:17:16.727Z,9.37
2023-02-24T17:19:44.136Z,7.97
2023-02-24T17:22:11.438Z,11.03
2023-02-24T17:24:38.837Z,11.50
2023-02-24T17:27:07.840Z,9.27
2023-02-24T17:29:35.060Z,10.57
2023-02-24T17:32:02.621Z,12.53
2023-02-24T17:34:30.142Z,11.93
2023-02-24T17:36:57.579Z,14.27
2023-02-24T17:39:24.900Z,10.37
2023-02-24T17:41:52.220Z,16.47
2023-02-24T17:44:19.516Z,13.33
2023-02-24T17:46:46.841Z,11.97
2023-02-24T17:49:14.159Z,13.43
2023-02-24T17:51:41.462Z,15.27
2023-02-24T17:54:08.749Z,12.60
2023-02-24T17:56:36.052Z,13.13
2023-02-24T17:59:03.344Z,12.90
2023-02-24T18:01:30.687Z,14.83
2023-02-24T18:03:58.054Z,14.80
2023-02-24T18:06:26.036Z,14.47
2023-02-24T18:08:53.476Z,10.90
2023-02-24T18:11:20.890Z,14.30
2023-02-24T18:13:50.883Z,12.27
2023-02-24T18:16:18.777Z,15.33
2023-02-24T18:18:46.152Z,14.43
2023-02-24T18:21:13.551Z,14.23
2023-02-24T18:23:41.127Z,14.37
2023-02-24T18:26:10.354Z,16.20
2023-02-24T18:28:38.105Z,17.93
2023-02-24T18:31:17.155Z,15.97
2023-02-24T18:33:45.438Z,10.97
2023-02-24T18:36:13.688Z,16.33
2023-02-24T18:38:41.391Z,10.97
2023-02-24T18:41:15.699Z,15.67
2023-02-24T18:43:43.460Z,16.20
2023-02-24T18:46:15.249Z,17.23
2023-02-24T18:48:44.502Z,13.27
2023-02-24T18:51:13.469Z,14.50
2023-02-24T18:53:41.053Z,17.00
2023-02-24T18:56:11.323Z,10.43
2023-02-24T18:58:40.554Z,12.20
2023-02-24T19:01:17.102Z,12.60
2023-02-24T19:03:44.430Z,18.53
2023-02-24T19:06:12.536Z,18.47
2023-02-24T19:08:40.922Z,17.83
2023-02-24T19:11:10.255Z,22.87
2023-02-24T19:13:38.209Z,12.60
2023-02-24T19:16:06.201Z,16.65
2023-02-24T19:18:34.050Z,12.60
2023-02-24T19:21:01.383Z,15.30
2023-02-24T19:23:28.906Z,7.83
2023-02-24T19:25:56.342Z,11.30
2023-02-24T19:28:23.770Z,5.83
2023-02-24T19:30:51.047Z,6.50
2023-02-24T19:33:18.286Z,8.50
2023-02-24T19:35:45.564Z,6.90
2023-02-24T19:38:15.335Z,7.43
2023-02-24T19:40:43.803Z,7.37
2023-02-24T19:43:11.619Z,4.90
2023-02-24T19:45:42.985Z,7.03
2023-02-24T19:48:11.103Z,3.40
2023-02-24T19:50:41.972Z,7.43
2023-02-24T19:53:09.543Z,5.73
2023-02-24T19:55:36.885Z,3.77
2023-02-24T19:58:04.763Z,5.20
2023-02-24T20:00:32.514Z,4.93
2023-02-24T20:02:59.893Z,3.87
2023-02-24T20:05:27.164Z,6.43
2023-02-24T20:07:54.770Z,6.47
2023-02-24T20:10:22.685Z,6.40
2023-02-24T20:12:50.054Z,7.53
2023-02-24T20:15:17.500Z,4.73
2023-02-24T20:17:45.384Z,13.90
2023-02-24T20:20:13.230Z,5.50
2023-02-24T20:22:41.261Z,8.23
2023-02-24T20:25:09.548Z,8.63
2023-02-24T20:27:36.902Z,7.27
2023-02-24T20:30:04.706Z,5.83
2023-02-24T20:32:32.472Z,6.27
2023-02-24T20:34:59.902Z,8.43
2023-02-24T20:37:27.139Z,5.57
2023-02-24T20:39:54.503Z,8.17
2023-02-24T20:42:22.348Z,9.20
2023-02-24T20:44:49.627Z,7.60
2023-02-24T20:47:19.063Z,4.23
2023-02-24T20:49:46.803Z,4.93
2023-02-24T20:52:14.165Z,4.30
2023-02-24T20:54:43.330Z,6.77
2023-02-24T20:57:13.828Z,6.17
2023-02-24T20:59:49.274Z,5.30
2023-02-24T21:02:21.990Z,8.03
2023-02-24T21:04:49.399Z,10.47
2023-02-24T21:07:16.839Z,10.17
2023-02-24T21:09:44.150Z,9.53
2023-02-24T21:12:11.500Z,8.20
2023-02-24T21:14:38.796Z,9.13
2023-02-24T21:17:06.044Z,7.17
2023-02-24T21:19:33.294Z,7.03
2023-02-24T21:22:03.135Z,14.37
2023-02-24T21:24:31.391Z,10.17
2023-02-24T21:26:59.048Z,6.83
2023-02-24T21:29:26.297Z,6.53
2023-02-24T21:31:56.157Z,12.57
2023-02-24T21:34:23.800Z,8.67
2023-02-24T21:36:54.588Z,4.53
2023-02-24T21:39:21.857Z,7.00
2023-02-24T21:41:49.229Z,6.67
2023-02-24T21:44:16.602Z,8.53
2023-02-24T21:46:45.585Z,8.63
2023-02-24T21:49:14.326Z,8.47
2023-02-24T21:51:42.217Z,6.17
2023-02-24T21:54:12.408Z,7.00
2023-02-24T21:56:39.702Z,11.87
2023-02-24T21:59:09.377Z,11.43
2023-02-24T22:01:39.491Z,8.53
2023-02-24T22:04:10.225Z,10.67
2023-02-24T22:06:38.874Z,11.97
2023-02-24T22:09:08.710Z,9.97
2023-02-24T22:11:39.915Z,9.10
2023-02-24T22:14:09.763Z,13.00
2023-02-24T22:16:37.363Z,13.53
2023-02-24T22:19:05.290Z,13.90
2023-02-24T22:21:32.695Z,15.23
2023-02-24T22:24:02.483Z,10.40
2023-02-24T22:26:31.860Z,10.70
2023-02-24T22:29:00.392Z,16.67
2023-02-24T22:31:30.732Z,14.70
2023-02-24T22:33:58.700Z,16.50
2023-02-24T22:36:31.350Z,12.23
2023-02-24T22:39:00.257Z,14.60
2023-02-24T22:41:31.217Z,12.57
2023-02-24T22:43:59.453Z,11.37
2023-02-24T22:46:32.713Z,17.30
2023-02-24T22:49:00.169Z,18.43
2023-02-24T22:51:28.294Z,10.27
2023-02-24T22:53:56.886Z,11.27
2023-02-24T22:56:26.973Z,14.73
2023-02-24T22:58:55.079Z,6.00
2023-02-24T23:01:28.093Z,11.23
2023-02-24T23:03:58.369Z,12.13
2023-02-24T23:06:26.405Z,13.30
2023-02-24T23:08:54.511Z,8.87
2023-02-24T23:11:30.227Z,7.67
2023-02-24T23:13:59.479Z,12.33
2023-02-24T23:16:29.801Z,17.40
2023-02-24T23:19:04.222Z,8.73
2023-02-24T23:21:34.944Z,20.97
2023-02-24T23:24:03.295Z,13.60
2023-02-24T23:26:35.819Z,13.17
2023-02-24T23:29:03.626Z,8.23
2023-02-24T23:31:30.992Z,8.17
2023-02-24T23:33:58.631Z,10.53
2023-02-24T23:36:26.374Z,13.03
2023-02-24T23:38:54.497Z,10.90
2023-02-24T23:41:22.072Z,15.03
2023-02-24T23:43:49.404Z,18.83
2023-02-24T23:46:16.786Z,12.73
2023-02-24T23:48:44.082Z,7.00
2023-02-24T23:51:13.890Z,8.33
2023-02-24T23:53:44.033Z,14.43
2023-02-24T23:56:15.870Z,10.53
2023-02-24T23:58:43.689Z,11.30
